createdAt,value
2022-12-28T00:02:22.476Z,3.10
2022-12-28T00:04:50.479Z,2.93
2022-12-28T00:07:18.461Z,3.20
2022-12-28T00:09:46.379Z,3.20
2022-12-28T00:12:14.235Z,2.93
2022-12-28T00:14:42.107Z,3.33
2022-12-28T00:17:11.532Z,3.00
2022-12-28T00:19:39.401Z,2.80
2022-12-28T00:22:07.371Z,3.03
2022-12-28T00:24:35.756Z,3.10
2022-12-28T00:27:03.792Z,3.00
2022-12-28T00:29:31.692Z,2.97
2022-12-28T00:32:00.275Z,3.10
2022-12-28T00:34:29.582Z,3.27
2022-12-28T00:37:09.529Z,2.83
2022-12-28T00:39:41.863Z,2.80
2022-12-28T00:42:10.117Z,3.23
2022-12-28T00:44:38.546Z,3.17
2022-12-28T00:47:06.628Z,3.10
2022-12-28T00:49:35.916Z,3.10
2022-12-28T00:52:03.953Z,2.87
2022-12-28T00:54:31.887Z,3.07
2022-12-28T00:56:59.849Z,2.93
2022-12-28T00:59:27.772Z,3.40
2022-12-28T01:01:55.834Z,3.20
2022-12-28T01:04:23.845Z,3.43
2022-12-28T01:06:53.153Z,3.57
2022-12-28T01:09:21.085Z,3.33
2022-12-28T01:11:48.982Z,3.27
2022-12-28T01:14:16.899Z,3.07
2022-12-28T01:16:47.633Z,3.23
2022-12-28T01:19:19.921Z,3.27
2022-12-28T01:21:49.813Z,3.30
2022-12-28T01:24:19.314Z,3.27
2022-12-28T01:26:47.287Z,3.10
2022-12-28T01:29:15.312Z,3.37
2022-12-28T01:31:43.268Z,3.23
2022-12-28T01:34:13.818Z,3.50
2022-12-28T01:36:41.756Z,3.20
2022-12-28T01:39:11.439Z,3.10
2022-12-28T01:41:42.546Z,3.33
2022-12-28T01:44:41.010Z,3.10
2022-12-28T01:47:12.545Z,3.50
2022-12-28T01:49:43.748Z,3.33
2022-12-28T01:52:17.186Z,3.30
2022-12-28T01:54:47.821Z,3.47
2022-12-28T01:57:18.098Z,3.10
2022-12-28T01:59:51.233Z,3.00
2022-12-28T02:02:22.242Z,3.10
2022-12-28T02:04:51.164Z,3.03
2022-12-28T02:07:28.907Z,3.43
2022-12-28T02:10:43.490Z,3.60
2022-12-28T02:12:49.400Z,3.70
2022-12-28T02:15:22.897Z,3.27
2022-12-28T02:17:51.911Z,2.97
2022-12-28T02:20:20.443Z,3.00
2022-12-28T02:23:13.180Z,3.27
2022-12-28T02:26:29.594Z,3.20
2022-12-28T02:29:22.060Z,3.00
2022-12-28T02:31:57.814Z,3.20
2022-12-28T02:34:29.363Z,3.17
2022-12-28T02:37:02.479Z,3.00
2022-12-28T02:39:37.243Z,2.90
2022-12-28T02:42:06.181Z,3.20
2022-12-28T02:44:54.091Z,3.33
2022-12-28T02:47:39.586Z,3.07
2022-12-28T02:50:12.560Z,3.20
2022-12-28T02:52:57.280Z,3.20
2022-12-28T02:55:57.806Z,3.13
2022-12-28T02:58:55.735Z,3.30
2022-12-28T03:01:44.838Z,3.40
2022-12-28T03:04:19.929Z,3.40
2022-12-28T03:07:15.482Z,3.53
2022-12-28T03:09:50.159Z,3.57
2022-12-28T03:12:23.537Z,3.23
2022-12-28T03:14:55.736Z,3.70
2022-12-28T03:17:44.548Z,3.70
2022-12-28T03:20:37.584Z,3.80
2022-12-28T03:23:26.256Z,3.90
2022-12-28T03:26:14.499Z,3.57
2022-12-28T03:29:03.562Z,3.97
2022-12-28T03:31:35.399Z,3.40
2022-12-28T03:34:10.067Z,3.67
2022-12-28T03:36:53.343Z,3.50
2022-12-28T03:39:32.898Z,3.30
2022-12-28T03:42:24.523Z,3.37
2022-12-28T03:44:58.932Z,3.70
2022-12-28T03:47:28.871Z,3.50
2022-12-28T03:49:59.815Z,3.50
2022-12-28T03:52:28.277Z,3.63
2022-12-28T03:54:57.547Z,3.30
2022-12-28T03:57:25.588Z,3.47
2022-12-28T03:59:54.421Z,3.57
2022-12-28T04:02:24.322Z,3.83
2022-12-28T04:04:53.045Z,4.03
2022-12-28T04:07:22.354Z,3.80
2022-12-28T04:09:50.356Z,3.70
2022-12-28T04:12:18.230Z,3.47
2022-12-28T04:15:07.661Z,3.50
2022-12-28T04:17:35.831Z,3.90
2022-12-28T04:20:04.304Z,3.77
2022-12-28T04:22:33.715Z,3.17
2022-12-28T04:25:01.627Z,3.87
2022-12-28T04:27:29.527Z,3.50
2022-12-28T04:30:03.329Z,3.37
2022-12-28T04:32:35.609Z,3.60
2022-12-28T04:35:05.934Z,3.30
2022-12-28T04:37:42.765Z,3.67
2022-12-28T04:40:11.685Z,3.30
2022-12-28T04:42:39.578Z,3.50
2022-12-28T04:45:08.510Z,3.60
2022-12-28T04:47:36.461Z,3.77
2022-12-28T04:50:04.518Z,3.70
2022-12-28T04:52:34.473Z,3.90
2022-12-28T04:55:03.830Z,3.50
2022-12-28T04:57:31.741Z,3.90
2022-12-28T04:59:59.659Z,3.70
2022-12-28T05:02:27.700Z,4.00
2022-12-28T05:04:55.733Z,4.40
2022-12-28T05:07:23.636Z,3.97
2022-12-28T05:09:51.542Z,3.73
2022-12-28T05:12:20.984Z,3.70
2022-12-28T05:14:49.038Z,3.57
2022-12-28T05:17:17.034Z,3.33
2022-12-28T05:19:44.980Z,3.90
2022-12-28T05:22:12.846Z,3.97
2022-12-28T05:24:41.212Z,3.40
2022-12-28T05:27:09.083Z,3.13
2022-12-28T05:29:38.303Z,3.30
2022-12-28T05:32:07.035Z,3.30
2022-12-28T05:34:34.955Z,3.47
2022-12-28T05:37:02.874Z,3.10
2022-12-28T05:39:30.842Z,3.23
2022-12-28T05:42:00.657Z,3.57
2022-12-28T05:44:28.804Z,3.30
2022-12-28T05:46:58.087Z,3.77
2022-12-28T05:49:25.963Z,3.53
2022-12-28T05:51:53.878Z,3.40
2022-12-28T05:54:21.890Z,3.00
2022-12-28T05:56:52.460Z,3.13
2022-12-28T05:59:20.372Z,3.00
2022-12-28T06:01:48.425Z,3.23
2022-12-28T06:04:19.843Z,3.20
2022-12-28T06:06:49.156Z,2.97
2022-12-28T06:09:17.189Z,2.83
2022-12-28T06:11:45.818Z,3.00
2022-12-28T06:14:13.759Z,2.87
2022-12-28T06:16:43.381Z,2.80
2022-12-28T06:19:14.672Z,2.50
2022-12-28T06:21:44.044Z,2.80
2022-12-28T06:24:13.811Z,2.97
2022-12-28T06:26:42.139Z,3.20
2022-12-28T06:29:10.398Z,2.80
2022-12-28T06:31:39.639Z,2.87
2022-12-28T06:34:09.187Z,2.70
2022-12-28T06:36:39.164Z,3.50
2022-12-28T06:39:10.812Z,2.93
2022-12-28T06:41:39.552Z,3.07
2022-12-28T06:44:08.577Z,3.70
2022-12-28T06:46:37.411Z,3.23
2022-12-28T06:49:05.342Z,3.20
2022-12-28T06:51:36.175Z,3.43
2022-12-28T06:54:04.222Z,3.60
2022-12-28T06:56:35.703Z,3.30
2022-12-28T06:59:04.928Z,3.20
2022-12-28T07:01:34.989Z,3.30
2022-12-28T07:04:04.560Z,3.00
2022-12-28T07:06:36.233Z,4.07
2022-12-28T07:09:06.695Z,3.70
2022-12-28T07:11:36.873Z,3.00
2022-12-28T07:14:04.941Z,3.33
2022-12-28T07:19:00.716Z,3.20
2022-12-28T07:21:30.840Z,3.30
2022-12-28T07:23:59.422Z,3.57
2022-12-28T07:26:29.213Z,2.93
2022-12-28T07:28:59.917Z,3.03
2022-12-28T07:31:29.521Z,3.40
2022-12-28T07:33:59.217Z,3.40
2022-12-28T07:36:28.315Z,3.20
2022-12-28T07:38:57.121Z,3.20
2022-12-28T07:41:27.795Z,2.87
2022-12-28T07:43:56.223Z,3.13
2022-12-28T07:46:26.827Z,3.03
2022-12-28T07:48:56.880Z,3.30
2022-12-28T07:51:27.064Z,3.30
2022-12-28T07:53:56.205Z,3.60
2022-12-28T07:56:26.102Z,3.23
2022-12-28T07:58:55.916Z,3.50
2022-12-28T08:01:27.349Z,3.97
2022-12-28T08:03:59.362Z,3.77
2022-12-28T08:06:29.424Z,4.00
2022-12-28T08:09:00.047Z,3.97
2022-12-28T08:11:30.295Z,4.23
2022-12-28T08:13:59.175Z,4.63
2022-12-28T08:16:30.870Z,4.40
2022-12-28T08:18:58.973Z,4.90
2022-12-28T08:21:29.779Z,4.80
2022-12-28T08:23:58.960Z,4.23
2022-12-28T08:26:28.491Z,4.40
2022-12-28T08:28:58.969Z,4.40
2022-12-28T08:31:30.529Z,4.87
2022-12-28T08:34:00.015Z,3.87
2022-12-28T08:36:28.547Z,3.73
2022-12-28T08:38:57.380Z,4.17
2022-12-28T08:41:27.157Z,3.70
2022-12-28T08:43:55.900Z,4.70
2022-12-28T08:46:25.689Z,4.07
2022-12-28T08:48:57.418Z,4.10
2022-12-28T08:51:27.887Z,4.33
2022-12-28T08:53:55.804Z,4.00
2022-12-28T08:56:27.053Z,4.03
2022-12-28T08:58:55.959Z,3.67
2022-12-28T09:01:26.079Z,3.90
2022-12-28T09:03:58.799Z,2.90
2022-12-28T09:06:29.408Z,2.97
2022-12-28T09:09:06.752Z,2.90
2022-12-28T09:11:35.683Z,2.90
2022-12-28T09:14:03.672Z,2.50
2022-12-28T09:16:31.881Z,2.70
2022-12-28T09:19:03.333Z,2.80
2022-12-28T09:21:32.943Z,2.73
2022-12-28T09:24:00.854Z,2.93
2022-12-28T09:26:31.634Z,3.03
2022-12-28T09:29:01.455Z,3.13
2022-12-28T09:31:31.367Z,3.00
2022-12-28T09:36:49.490Z,2.67
2022-12-28T09:39:19.259Z,2.70
2022-12-28T09:41:51.689Z,2.83
2022-12-28T09:44:38.464Z,3.00
2022-12-28T09:47:17.353Z,2.83
2022-12-28T09:49:57.359Z,3.00
2022-12-28T09:52:29.749Z,2.80
2022-12-28T09:55:08.140Z,3.20
2022-12-28T09:57:40.088Z,3.20
2022-12-28T10:00:15.728Z,3.30
2022-12-28T10:02:48.768Z,3.33
2022-12-28T10:05:18.382Z,2.87
2022-12-28T10:07:46.393Z,3.37
2022-12-28T10:10:18.073Z,3.43
2022-12-28T10:12:46.931Z,3.00
2022-12-28T10:15:15.776Z,3.27
2022-12-28T10:17:44.485Z,3.60
2022-12-28T10:20:19.005Z,3.43
2022-12-28T10:22:51.671Z,3.60
2022-12-28T10:25:22.134Z,3.37
2022-12-28T10:27:50.656Z,3.23
2022-12-28T10:30:21.028Z,3.50
2022-12-28T10:32:51.280Z,4.17
2022-12-28T10:35:29.911Z,3.30
2022-12-28T10:38:04.016Z,3.60
2022-12-28T10:40:34.898Z,3.40
2022-12-28T10:43:10.109Z,4.07
2022-12-28T10:45:42.449Z,3.77
2022-12-28T10:48:15.777Z,3.67
2022-12-28T10:50:50.354Z,3.33
2022-12-28T10:53:21.398Z,3.90
2022-12-28T10:55:49.332Z,3.80
2022-12-28T10:58:30.775Z,3.23
2022-12-28T11:01:01.395Z,3.00
2022-12-28T11:03:31.558Z,2.90
2022-12-28T11:06:28.699Z,3.00
2022-12-28T11:09:07.574Z,2.63
2022-12-28T11:11:35.586Z,2.97
2022-12-28T11:14:12.715Z,3.10
2022-12-28T11:16:42.346Z,2.80
2022-12-28T11:19:11.828Z,2.67
2022-12-28T11:21:43.119Z,2.80
2022-12-28T11:24:14.800Z,3.20
2022-12-28T11:26:45.281Z,3.13
2022-12-28T11:29:15.861Z,2.77
2022-12-28T11:31:48.853Z,2.47
2022-12-28T11:34:21.278Z,2.47
2022-12-28T11:36:50.976Z,2.33
2022-12-28T11:39:44.676Z,2.67
2022-12-28T11:42:38.544Z,2.20
2022-12-28T11:45:02.018Z,2.53
2022-12-28T11:47:33.983Z,2.30
2022-12-28T11:50:39.559Z,2.47
2022-12-28T11:53:49.586Z,2.37
2022-12-28T11:56:18.891Z,2.27
2022-12-28T11:59:01.249Z,2.10
2022-12-28T12:01:49.478Z,2.20
2022-12-28T12:04:28.965Z,2.03
2022-12-28T12:07:41.731Z,2.30
2022-12-28T12:10:31.381Z,1.90
2022-12-28T12:12:59.475Z,2.20
2022-12-28T12:15:34.079Z,2.00
2022-12-28T12:18:04.737Z,2.10
2022-12-28T12:20:51.324Z,2.20
2022-12-28T12:23:27.123Z,2.50
2022-12-28T12:25:59.041Z,2.67
2022-12-28T12:28:38.262Z,2.23
2022-12-28T12:31:12.423Z,2.20
2022-12-28T12:33:45.462Z,2.00
2022-12-28T12:36:29.868Z,2.33
2022-12-28T12:39:20.011Z,2.40
2022-12-28T12:41:59.621Z,2.43
2022-12-28T12:44:34.604Z,2.50
2022-12-28T12:47:28.282Z,2.30
2022-12-28T12:50:27.628Z,2.10
2022-12-28T12:53:05.669Z,2.00
2022-12-28T12:55:52.595Z,1.97
2022-12-28T12:58:27.371Z,2.30
2022-12-28T13:01:10.808Z,2.40
2022-12-28T13:03:43.661Z,2.20
2022-12-28T13:06:15.385Z,2.60
2022-12-28T13:08:48.517Z,2.43
2022-12-28T13:11:18.182Z,2.50
2022-12-28T13:13:50.958Z,2.07
2022-12-28T13:16:21.554Z,2.30
2022-12-28T13:18:57.686Z,2.30
2022-12-28T13:21:27.391Z,2.60
2022-12-28T13:23:56.036Z,2.03
2022-12-28T13:26:27.971Z,2.03
2022-12-28T13:29:00.718Z,2.10
2022-12-28T13:31:35.370Z,2.20
2022-12-28T13:34:05.804Z,2.67
2022-12-28T13:36:33.732Z,1.87
2022-12-28T13:39:05.121Z,2.00
2022-12-28T13:41:36.150Z,1.97
2022-12-28T13:44:32.655Z,3.07
2022-12-28T13:47:05.509Z,2.87
2022-12-28T13:49:38.588Z,2.00
2022-12-28T13:52:14.491Z,2.10
2022-12-28T13:54:46.545Z,2.27
2022-12-28T14:00:08.681Z,2.10
2022-12-28T14:02:37.047Z,2.20
2022-12-28T14:05:05.460Z,2.20
2022-12-28T14:07:36.777Z,2.40
2022-12-28T14:10:06.053Z,2.00
2022-12-28T14:12:34.213Z,1.90
2022-12-28T14:15:02.409Z,1.90
2022-12-28T14:17:32.370Z,1.80
2022-12-28T14:20:00.587Z,1.97
2022-12-28T14:22:32.442Z,2.27
2022-12-28T14:25:06.924Z,1.90
2022-12-28T14:27:39.141Z,2.10
2022-12-28T14:30:09.281Z,1.90
2022-12-28T14:32:42.907Z,2.07
2022-12-28T14:35:19.422Z,1.90
2022-12-28T14:37:50.985Z,2.23
2022-12-28T14:40:26.418Z,2.20
2022-12-28T14:42:56.021Z,2.40
2022-12-28T14:46:05.489Z,1.80
2022-12-28T14:48:40.252Z,2.20
2022-12-28T14:51:27.033Z,2.00
2022-12-28T14:54:20.326Z,1.63
2022-12-28T14:56:51.966Z,2.00
2022-12-28T14:59:25.233Z,2.10
2022-12-28T15:01:53.486Z,2.27
2022-12-28T15:04:37.045Z,2.10
2022-12-28T15:07:06.175Z,2.20
2022-12-28T15:09:34.305Z,1.87
2022-12-28T15:12:13.619Z,2.30
2022-12-28T15:14:41.603Z,2.10
2022-12-28T15:17:10.253Z,2.00
2022-12-28T15:19:39.841Z,1.83
2022-12-28T15:22:07.743Z,1.80
2022-12-28T15:24:35.688Z,2.10
2022-12-28T15:27:03.941Z,1.90
2022-12-28T15:30:03.703Z,1.90
2022-12-28T15:32:19.855Z,2.00
2022-12-28T15:34:49.073Z,2.03
2022-12-28T15:37:17.016Z,1.73
2022-12-28T15:39:44.913Z,1.83
2022-12-28T15:42:12.753Z,1.90
2022-12-28T15:44:40.643Z,2.00
2022-12-28T15:47:08.635Z,1.90
2022-12-28T15:49:36.598Z,2.23
2022-12-28T15:52:06.090Z,2.03
2022-12-28T15:54:34.024Z,2.10
2022-12-28T15:57:01.981Z,1.97
2022-12-28T15:59:29.897Z,2.00
2022-12-28T16:01:57.979Z,1.80
2022-12-28T16:04:26.050Z,1.97
2022-12-28T16:06:53.971Z,2.10
2022-12-28T16:09:23.499Z,2.30
2022-12-28T16:11:55.019Z,2.10
2022-12-28T16:14:23.226Z,2.10
2022-12-28T16:16:51.258Z,2.07
2022-12-28T16:19:19.627Z,2.10
2022-12-28T16:21:50.449Z,2.27
2022-12-28T16:24:19.059Z,2.20
2022-12-28T16:26:48.457Z,2.07
2022-12-28T16:29:16.374Z,2.50
2022-12-28T16:31:44.291Z,2.00
2022-12-28T16:34:14.457Z,2.00
2022-12-28T16:36:42.666Z,2.03
2022-12-28T16:39:15.699Z,2.03
2022-12-28T16:41:43.623Z,2.17
2022-12-28T16:44:16.609Z,2.20
2022-12-28T16:46:44.553Z,2.30
2022-12-28T16:49:13.075Z,1.97
2022-12-28T16:51:43.694Z,2.00
2022-12-28T16:54:14.804Z,2.40
2022-12-28T16:56:42.849Z,2.00
2022-12-28T16:59:16.285Z,2.20
2022-12-28T17:01:44.845Z,2.40
2022-12-28T17:04:13.479Z,2.20
2022-12-28T17:06:42.168Z,1.90
2022-12-28T17:09:10.275Z,2.17
2022-12-28T17:11:38.220Z,2.33
2022-12-28T17:14:08.567Z,1.87
2022-12-28T17:16:38.215Z,2.20
2022-12-28T17:19:06.880Z,1.80
2022-12-28T17:21:35.591Z,2.17
2022-12-28T17:24:04.271Z,1.83
2022-12-28T17:26:32.424Z,2.00
2022-12-28T17:29:00.686Z,1.70
2022-12-28T17:31:28.934Z,2.13
2022-12-28T17:33:59.261Z,1.93
2022-12-28T17:36:27.702Z,2.30
2022-12-28T17:38:55.615Z,2.07
2022-12-28T17:41:26.367Z,2.00
2022-12-28T17:43:56.702Z,1.80
2022-12-28T17:46:26.027Z,2.10
2022-12-28T17:48:54.709Z,1.97
2022-12-28T17:51:25.416Z,1.70
2022-12-28T17:53:55.909Z,1.67
2022-12-28T17:56:23.927Z,1.83
2022-12-28T17:58:55.688Z,1.70
2022-12-28T18:01:24.518Z,1.80
2022-12-28T18:03:52.602Z,1.90
2022-12-28T18:06:20.904Z,1.70
2022-12-28T18:08:50.255Z,1.80
2022-12-28T18:11:18.250Z,1.83
2022-12-28T18:13:47.572Z,1.90
2022-12-28T18:16:18.828Z,1.93
2022-12-28T18:18:47.195Z,1.90
2022-12-28T18:21:21.315Z,1.93
2022-12-28T18:23:53.262Z,1.80
2022-12-28T18:26:23.061Z,2.00
2022-12-28T18:28:51.160Z,1.90
2022-12-28T18:31:19.934Z,1.67
2022-12-28T18:33:48.097Z,1.80
2022-12-28T18:36:18.095Z,1.70
2022-12-28T18:38:47.490Z,1.80
2022-12-28T18:41:22.557Z,2.10
2022-12-28T18:43:52.075Z,2.23
2022-12-28T18:46:20.135Z,2.23
2022-12-28T18:48:48.056Z,1.90
2022-12-28T18:51:18.120Z,2.43
2022-12-28T18:53:46.718Z,2.20
2022-12-28T18:56:16.132Z,2.20
2022-12-28T18:58:46.268Z,2.23
2022-12-28T19:01:48.034Z,2.00
2022-12-28T19:04:07.488Z,2.20
2022-12-28T19:06:35.931Z,2.10
2022-12-28T19:09:05.951Z,2.50
2022-12-28T19:11:34.580Z,2.50
2022-12-28T19:14:04.847Z,2.43
2022-12-28T19:16:33.121Z,2.50
2022-12-28T19:19:01.332Z,2.70
2022-12-28T19:21:30.947Z,2.63
2022-12-28T19:24:00.732Z,2.60
2022-12-28T19:26:28.680Z,2.70
2022-12-28T19:28:58.042Z,2.50
2022-12-28T19:31:27.981Z,2.40
2022-12-28T19:33:56.167Z,2.43
2022-12-28T19:36:24.051Z,2.40
2022-12-28T19:38:54.106Z,2.20
2022-12-28T19:41:22.459Z,2.30
2022-12-28T19:43:50.489Z,2.60
2022-12-28T19:46:20.817Z,2.37
2022-12-28T19:48:53.017Z,2.43
2022-12-28T19:51:24.570Z,2.30
2022-12-28T19:53:56.619Z,2.53
2022-12-28T19:56:24.877Z,2.33
2022-12-28T19:58:56.614Z,2.40
2022-12-28T20:01:29.489Z,2.50
2022-12-28T20:03:59.452Z,2.70
2022-12-28T20:06:29.203Z,2.30
2022-12-28T20:08:59.287Z,2.20
2022-12-28T20:11:28.345Z,2.27
2022-12-28T20:13:57.967Z,2.23
2022-12-28T20:16:27.415Z,2.47
2022-12-28T20:18:56.280Z,2.30
2022-12-28T20:21:26.998Z,2.40
2022-12-28T20:23:56.113Z,2.67
2022-12-28T20:26:26.974Z,2.37
2022-12-28T20:28:56.342Z,2.10
2022-12-28T20:31:24.867Z,2.40
2022-12-28T20:33:53.109Z,2.30
2022-12-28T20:36:23.484Z,2.33
2022-12-28T20:38:54.420Z,2.47
2022-12-28T20:41:42.273Z,2.40
2022-12-28T20:44:11.961Z,2.57
2022-12-28T20:46:40.038Z,2.57
2022-12-28T20:49:09.063Z,2.43
2022-12-28T20:51:37.239Z,2.50
2022-12-28T20:54:07.082Z,2.50
2022-12-28T20:56:38.226Z,2.40
2022-12-28T20:59:06.513Z,2.47
2022-12-28T21:01:35.434Z,2.63
2022-12-28T21:04:03.562Z,2.80
2022-12-28T21:06:31.638Z,2.70
2022-12-28T21:08:59.748Z,2.50
2022-12-28T21:11:30.963Z,2.47
2022-12-28T21:13:58.921Z,2.87
2022-12-28T21:16:27.168Z,2.40
2022-12-28T21:18:55.128Z,2.73
2022-12-28T21:21:23.469Z,2.80
2022-12-28T21:23:52.432Z,2.47
2022-12-28T21:26:21.715Z,2.60
2022-12-28T21:28:51.031Z,2.70
2022-12-28T21:31:19.037Z,2.67
2022-12-28T21:33:46.917Z,2.50
2022-12-28T21:36:16.915Z,2.70
2022-12-28T21:38:46.263Z,2.83
2022-12-28T21:41:16.202Z,2.30
2022-12-28T21:43:44.186Z,2.77
2022-12-28T21:46:15.883Z,2.50
2022-12-28T21:48:43.814Z,3.00
2022-12-28T21:51:27.711Z,2.40
2022-12-28T21:53:56.228Z,2.57
2022-12-28T21:56:24.180Z,2.57
2022-12-28T21:58:52.252Z,2.40
2022-12-28T22:01:38.938Z,2.50
2022-12-28T22:04:24.620Z,2.70
2022-12-28T22:06:52.486Z,2.73
2022-12-28T22:09:37.950Z,2.30
2022-12-28T22:12:23.904Z,2.60
2022-12-28T22:15:11.831Z,2.57
2022-12-28T22:17:41.107Z,3.40
2022-12-28T22:20:10.736Z,2.77
2022-12-28T22:22:39.109Z,3.03
2022-12-28T22:25:07.530Z,2.73
2022-12-28T22:27:35.486Z,3.20
2022-12-28T22:30:03.431Z,2.73
2022-12-28T22:32:31.444Z,2.77
2022-12-28T22:35:00.660Z,4.30
2022-12-28T22:37:28.596Z,2.70
2022-12-28T22:39:56.464Z,2.60
2022-12-28T22:42:24.353Z,2.63
2022-12-28T22:44:52.296Z,2.70
2022-12-28T22:47:21.002Z,2.50
2022-12-28T22:49:48.959Z,2.60
2022-12-28T22:52:18.320Z,2.60
2022-12-28T22:54:47.035Z,2.20
2022-12-28T22:57:15.218Z,2.40
2022-12-28T22:59:43.149Z,2.50
2022-12-28T23:02:11.153Z,2.50
2022-12-28T23:04:39.257Z,2.30
2022-12-28T23:07:07.366Z,2.40
2022-12-28T23:09:37.315Z,2.20
2022-12-28T23:12:05.520Z,2.10
2022-12-28T23:14:51.048Z,2.27
2022-12-28T23:17:18.961Z,2.10
2022-12-28T23:20:04.949Z,2.20
2022-12-28T23:22:53.151Z,2.37
2022-12-28T23:25:42.916Z,2.10
2022-12-28T23:28:12.956Z,2.23
2022-12-28T23:30:43.537Z,2.30
2022-12-28T23:33:11.465Z,2.40
2022-12-28T23:35:39.465Z,2.23
2022-12-28T23:38:07.327Z,2.30
2022-12-28T23:40:39.308Z,2.27
2022-12-28T23:43:07.499Z,1.90
2022-12-28T23:45:35.857Z,2.13
2022-12-28T23:48:03.881Z,2.30
2022-12-28T23:50:31.790Z,2.30
2022-12-28T23:52:59.672Z,2.50
2022-12-28T23:55:27.729Z,2.30
2022-12-28T23:57:56.931Z,2.30
